createdAt,value
2022-12-09T00:02:23.665Z,90.10
2022-12-09T00:04:53.025Z,90.20
2022-12-09T00:07:42.103Z,90.20
2022-12-09T00:10:11.572Z,90.30
2022-12-09T00:12:42.074Z,90.40
2022-12-09T00:15:11.520Z,90.60
2022-12-09T00:17:40.440Z,90.70
2022-12-09T00:20:10.871Z,90.80
2022-12-09T00:22:41.464Z,90.80
2022-12-09T00:25:10.698Z,91.00
2022-12-09T00:27:39.587Z,91.10
2022-12-09T00:30:10.265Z,91.10
2022-12-09T00:32:39.893Z,91.00
2022-12-09T00:35:09.598Z,91.00
2022-12-09T00:37:38.549Z,91.20
2022-12-09T00:40:10.910Z,91.10
2022-12-09T00:42:40.369Z,90.80
2022-12-09T00:45:10.409Z,90.60
2022-12-09T00:47:39.432Z,90.40
2022-12-09T00:50:09.780Z,90.10
2022-12-09T00:52:39.351Z,90.10
2022-12-09T00:55:11.825Z,90.10
2022-12-09T00:57:41.268Z,90.10
2022-12-09T01:00:11.645Z,90.10
2022-12-09T01:02:41.285Z,90.20
2022-12-09T01:05:10.709Z,90.20
2022-12-09T01:07:39.795Z,90.30
2022-12-09T01:10:11.671Z,90.40
2022-12-09T01:12:40.777Z,90.40
2022-12-09T01:15:10.864Z,90.30
2022-12-09T01:17:41.668Z,90.40
2022-12-09T01:20:12.382Z,90.30
2022-12-09T01:22:41.704Z,90.30
2022-12-09T01:25:12.391Z,90.10
2022-12-09T01:27:41.945Z,90.00
2022-12-09T01:30:14.249Z,90.10
2022-12-09T01:33:02.334Z,90.10
2022-12-09T01:35:31.562Z,90.10
2022-12-09T01:38:00.608Z,90.00
2022-12-09T01:40:31.025Z,90.10
2022-12-09T01:43:00.737Z,90.10
2022-12-09T01:45:42.350Z,90.10
2022-12-09T01:48:14.688Z,90.20
2022-12-09T01:51:05.395Z,90.20
2022-12-09T01:53:39.706Z,90.30
2022-12-09T01:56:16.363Z,90.40
2022-12-09T01:58:46.847Z,90.50
2022-12-09T02:01:16.835Z,90.60
2022-12-09T02:03:47.156Z,90.60
2022-12-09T02:06:18.532Z,90.70
2022-12-09T02:08:49.875Z,90.80
2022-12-09T02:11:32.583Z,90.90
2022-12-09T02:14:08.923Z,91.10
2022-12-09T02:16:42.322Z,91.20
2022-12-09T02:19:24.500Z,91.40
2022-12-09T02:21:59.977Z,91.50
2022-12-09T02:24:39.487Z,91.70
2022-12-09T02:27:18.474Z,91.70
2022-12-09T02:30:08.887Z,91.70
2022-12-09T02:33:04.643Z,91.70
2022-12-09T02:35:40.593Z,91.50
2022-12-09T02:38:13.298Z,91.40
2022-12-09T02:40:48.027Z,91.40
2022-12-09T02:43:19.611Z,91.40
2022-12-09T02:45:50.688Z,91.60
2022-12-09T02:48:25.422Z,91.60
2022-12-09T02:50:58.844Z,91.60
2022-12-09T02:53:28.336Z,91.90
2022-12-09T02:55:58.561Z,91.70
2022-12-09T02:58:28.737Z,91.70
2022-12-09T03:00:59.707Z,91.80
2022-12-09T03:03:32.861Z,91.90
2022-12-09T03:06:08.886Z,92.00
2022-12-09T03:08:44.790Z,92.00
2022-12-09T03:11:17.318Z,92.00
2022-12-09T03:13:54.119Z,92.10
2022-12-09T03:16:28.910Z,92.10
2022-12-09T03:19:01.824Z,92.10
2022-12-09T03:21:36.430Z,92.10
2022-12-09T03:24:09.065Z,92.20
2022-12-09T03:26:40.309Z,92.30
2022-12-09T03:29:15.006Z,92.30
2022-12-09T03:32:02.495Z,92.40
2022-12-09T03:34:36.217Z,92.40
2022-12-09T03:37:09.204Z,92.50
2022-12-09T03:39:40.769Z,92.40
2022-12-09T03:42:17.995Z,92.40
2022-12-09T03:44:51.685Z,92.40
2022-12-09T03:47:21.161Z,92.50
2022-12-09T03:49:50.193Z,92.50
2022-12-09T03:52:26.526Z,92.70
2022-12-09T03:55:01.076Z,92.80
2022-12-09T03:57:31.421Z,92.80
2022-12-09T04:00:02.913Z,93.00
2022-12-09T04:02:41.597Z,93.20
2022-12-09T04:05:11.642Z,93.30
2022-12-09T04:07:43.340Z,93.50
2022-12-09T04:10:12.993Z,93.60
2022-12-09T04:12:42.411Z,93.70
2022-12-09T04:15:11.723Z,93.80
2022-12-09T04:17:40.802Z,93.90
2022-12-09T04:20:11.000Z,94.10
2022-12-09T04:22:41.595Z,94.40
2022-12-09T04:25:11.711Z,94.60
2022-12-09T04:27:41.001Z,94.80
2022-12-09T04:30:11.241Z,95.00
2022-12-09T04:32:41.496Z,95.10
2022-12-09T04:35:11.241Z,95.10
2022-12-09T04:37:41.950Z,95.30
2022-12-09T04:40:16.746Z,95.50
2022-12-09T04:42:48.821Z,95.60
2022-12-09T04:45:17.921Z,95.70
2022-12-09T04:47:47.004Z,95.70
2022-12-09T04:50:16.431Z,95.70
2022-12-09T04:52:46.875Z,95.80
2022-12-09T04:55:16.150Z,95.80
2022-12-09T04:57:45.076Z,95.80
2022-12-09T05:00:15.369Z,95.90
2022-12-09T05:02:44.859Z,96.00
2022-12-09T05:05:14.023Z,95.90
2022-12-09T05:07:43.277Z,95.90
2022-12-09T05:10:14.561Z,95.90
2022-12-09T05:12:44.288Z,96.10
2022-12-09T05:15:13.861Z,96.10
2022-12-09T05:17:43.060Z,96.10
2022-12-09T05:20:14.181Z,96.10
2022-12-09T05:22:44.090Z,96.20
2022-12-09T05:25:14.560Z,96.30
2022-12-09T05:27:43.991Z,96.30
2022-12-09T05:30:13.943Z,96.20
2022-12-09T05:32:44.776Z,96.30
2022-12-09T05:35:13.750Z,96.80
2022-12-09T05:37:42.852Z,96.70
2022-12-09T05:40:14.068Z,96.70
2022-12-09T05:42:43.505Z,96.90
2022-12-09T05:45:13.137Z,97.00
2022-12-09T05:47:42.742Z,96.80
2022-12-09T05:50:12.766Z,96.70
2022-12-09T05:52:42.699Z,96.70
2022-12-09T05:55:14.175Z,96.80
2022-12-09T05:57:43.340Z,96.80
2022-12-09T06:00:14.146Z,97.00
2022-12-09T06:02:43.919Z,97.30
2022-12-09T06:05:13.880Z,97.70
2022-12-09T06:07:43.234Z,98.00
2022-12-09T06:10:14.695Z,98.50
2022-12-09T06:12:44.300Z,98.60
2022-12-09T06:15:18.739Z,99.10
2022-12-09T06:17:50.544Z,99.10
2022-12-09T06:20:20.021Z,99.10
2022-12-09T06:22:49.149Z,99.00
2022-12-09T06:25:19.863Z,98.90
2022-12-09T06:27:49.185Z,98.80
2022-12-09T06:30:19.069Z,98.70
2022-12-09T06:32:48.376Z,98.40
2022-12-09T06:35:18.139Z,98.10
2022-12-09T06:37:47.160Z,97.90
2022-12-09T06:40:16.969Z,97.80
2022-12-09T06:42:47.594Z,97.90
2022-12-09T06:45:16.972Z,97.90
2022-12-09T06:47:45.897Z,97.70
2022-12-09T06:50:16.126Z,97.70
2022-12-09T06:52:45.410Z,98.80
2022-12-09T06:55:15.255Z,99.80
2022-12-09T06:57:44.555Z,99.50
2022-12-09T07:00:16.575Z,99.10
2022-12-09T07:02:46.056Z,99.30
2022-12-09T07:05:15.800Z,99.30
2022-12-09T07:07:45.771Z,99.10
2022-12-09T07:10:14.732Z,98.60
2022-12-09T07:12:44.166Z,97.50
2022-12-09T07:15:16.172Z,97.40
2022-12-09T07:17:45.566Z,97.30
2022-12-09T07:20:15.690Z,96.10
2022-12-09T07:22:44.832Z,94.30
2022-12-09T07:25:14.157Z,93.50
2022-12-09T07:27:44.217Z,93.30
2022-12-09T07:30:15.543Z,92.70
2022-12-09T07:32:45.093Z,90.20
2022-12-09T07:35:14.590Z,85.80
2022-12-09T07:37:44.065Z,84.50
2022-12-09T07:40:13.995Z,82.50
2022-12-09T07:42:43.535Z,82.30
2022-12-09T07:45:15.321Z,79.40
2022-12-09T07:47:45.244Z,76.80
2022-12-09T07:50:14.343Z,76.30
2022-12-09T07:52:43.451Z,75.70
2022-12-09T07:55:12.908Z,72.10
2022-12-09T07:57:42.999Z,68.10
2022-12-09T08:00:13.494Z,66.70
2022-12-09T08:02:44.276Z,65.00
2022-12-09T08:05:13.696Z,65.60
2022-12-09T08:07:44.726Z,65.50
2022-12-09T08:10:14.211Z,68.30
2022-12-09T08:12:43.258Z,69.60
2022-12-09T08:15:13.349Z,69.80
2022-12-09T08:17:44.316Z,69.10
2022-12-09T08:20:15.611Z,68.10
2022-12-09T08:22:44.995Z,66.90
2022-12-09T08:25:14.197Z,65.40
2022-12-09T08:27:44.107Z,63.30
2022-12-09T08:30:15.053Z,60.80
2022-12-09T08:32:46.331Z,60.40
2022-12-09T08:35:16.315Z,61.10
2022-12-09T08:38:04.220Z,60.50
2022-12-09T08:40:33.689Z,60.90
2022-12-09T08:43:05.005Z,58.10
2022-12-09T08:45:37.844Z,55.60
2022-12-09T08:48:10.354Z,54.60
2022-12-09T08:50:40.097Z,54.30
2022-12-09T08:53:09.313Z,55.20
2022-12-09T08:55:40.288Z,55.80
2022-12-09T08:58:09.813Z,57.20
2022-12-09T09:00:39.126Z,58.30
2022-12-09T09:03:09.671Z,58.30
2022-12-09T09:05:39.275Z,58.60
2022-12-09T09:08:08.395Z,58.50
2022-12-09T09:10:38.954Z,58.70
2022-12-09T09:13:08.314Z,59.10
2022-12-09T09:15:40.474Z,59.40
2022-12-09T09:18:11.010Z,60.10
2022-12-09T09:20:40.357Z,60.80
2022-12-09T09:23:09.439Z,61.70
2022-12-09T09:25:42.773Z,62.70
2022-12-09T09:28:12.484Z,63.30
2022-12-09T09:30:41.517Z,63.90
2022-12-09T09:33:12.250Z,64.30
2022-12-09T09:35:41.600Z,64.60
2022-12-09T09:38:30.716Z,64.20
2022-12-09T09:41:02.053Z,63.80
2022-12-09T09:43:40.229Z,63.50
2022-12-09T09:46:12.448Z,63.80
2022-12-09T09:48:44.137Z,63.90
2022-12-09T09:51:17.144Z,64.00
2022-12-09T09:53:49.881Z,64.40
2022-12-09T09:56:26.892Z,64.60
2022-12-09T09:59:24.759Z,64.40
2022-12-09T10:02:00.586Z,64.60
2022-12-09T10:05:04.891Z,65.70
2022-12-09T10:07:42.191Z,66.00
2022-12-09T10:10:21.906Z,66.00
2022-12-09T10:13:11.030Z,66.10
2022-12-09T10:15:50.161Z,65.50
2022-12-09T10:18:27.995Z,64.30
2022-12-09T10:20:58.922Z,64.30
2022-12-09T10:23:33.017Z,64.30
2022-12-09T10:26:08.175Z,64.40
2022-12-09T10:28:41.830Z,64.80
2022-12-09T10:31:12.755Z,65.00
2022-12-09T10:33:42.932Z,64.80
2022-12-09T10:36:24.900Z,64.30
2022-12-09T10:38:56.134Z,64.10
2022-12-09T10:42:03.016Z,64.50
2022-12-09T10:44:32.725Z,64.80
2022-12-09T10:47:04.217Z,64.70
2022-12-09T10:49:35.049Z,64.00
2022-12-09T10:52:26.389Z,63.50
2022-12-09T10:54:56.001Z,62.40
2022-12-09T10:57:27.611Z,62.30
2022-12-09T11:00:08.113Z,61.70
2022-12-09T11:02:37.524Z,61.20
2022-12-09T11:05:29.073Z,61.10
2022-12-09T11:08:00.955Z,61.60
2022-12-09T11:10:32.119Z,61.30
2022-12-09T11:13:05.463Z,61.10
2022-12-09T11:15:39.767Z,61.30
2022-12-09T11:18:20.242Z,61.20
2022-12-09T11:20:59.077Z,61.30
2022-12-09T11:23:30.781Z,61.20
2022-12-09T11:26:02.627Z,61.40
2022-12-09T11:28:33.616Z,61.90
2022-12-09T11:34:00.326Z,62.20
2022-12-09T11:36:33.450Z,62.10
2022-12-09T11:39:28.401Z,62.60
2022-12-09T11:42:19.481Z,62.60
2022-12-09T11:44:57.905Z,62.10
2022-12-09T11:47:44.861Z,61.90
2022-12-09T11:50:25.276Z,61.90
2022-12-09T11:53:09.022Z,62.30
2022-12-09T11:55:45.909Z,62.20
2022-12-09T11:58:20.220Z,62.50
2022-12-09T12:00:53.443Z,62.50
2022-12-09T12:03:27.371Z,62.80
2022-12-09T12:05:57.041Z,63.00
2022-12-09T12:08:33.353Z,63.10
2022-12-09T12:11:11.976Z,62.90
2022-12-09T12:13:47.554Z,63.10
2022-12-09T12:16:22.255Z,62.50
2022-12-09T12:18:55.224Z,62.50
2022-12-09T12:21:45.915Z,62.50
2022-12-09T12:24:37.787Z,62.00
2022-12-09T12:27:24.797Z,61.80
2022-12-09T12:30:00.991Z,61.80
2022-12-09T12:32:43.330Z,62.10
2022-12-09T12:35:30.999Z,62.80
2022-12-09T12:38:12.472Z,62.20
2022-12-09T12:40:47.376Z,62.20
2022-12-09T12:43:55.044Z,62.40
2022-12-09T12:46:38.371Z,62.40
2022-12-09T12:49:31.576Z,61.90
2022-12-09T12:52:26.394Z,61.30
2022-12-09T12:55:05.839Z,61.60
2022-12-09T12:57:46.907Z,61.70
2022-12-09T13:00:21.448Z,62.10
2022-12-09T13:03:03.215Z,62.90
2022-12-09T13:05:39.954Z,63.00
2022-12-09T13:08:34.921Z,63.30
2022-12-09T13:11:09.932Z,63.70
2022-12-09T13:13:46.187Z,63.70
2022-12-09T13:16:32.623Z,64.10
2022-12-09T13:19:08.450Z,64.30
2022-12-09T13:21:38.039Z,64.00
2022-12-09T13:24:18.307Z,63.90
2022-12-09T13:26:54.171Z,64.10
2022-12-09T13:29:37.404Z,64.20
2022-12-09T13:32:20.917Z,64.20
2022-12-09T13:34:54.732Z,64.30
2022-12-09T13:37:58.336Z,64.40
2022-12-09T13:40:32.540Z,64.50
2022-12-09T13:43:21.112Z,64.70
2022-12-09T13:45:53.282Z,64.60
2022-12-09T13:48:48.863Z,65.30
2022-12-09T13:51:18.984Z,65.50
2022-12-09T13:53:51.828Z,66.00
2022-12-09T13:56:25.498Z,66.40
2022-12-09T13:59:41.956Z,66.80
2022-12-09T14:02:28.776Z,67.00
2022-12-09T14:05:08.822Z,67.00
2022-12-09T14:07:43.417Z,67.10
2022-12-09T14:10:37.641Z,67.30
2022-12-09T14:13:28.629Z,67.50
2022-12-09T14:16:25.096Z,67.50
2022-12-09T14:18:54.162Z,68.00
2022-12-09T14:21:29.948Z,68.00
2022-12-09T14:24:34.708Z,68.30
2022-12-09T14:27:18.080Z,68.50
2022-12-09T14:29:52.916Z,68.90
2022-12-09T14:32:32.886Z,69.20
2022-12-09T14:35:17.601Z,69.50
2022-12-09T14:38:00.607Z,69.80
2022-12-09T14:40:54.683Z,70.00
2022-12-09T14:43:54.489Z,70.50
2022-12-09T14:46:33.549Z,70.80
2022-12-09T14:49:06.201Z,71.20
2022-12-09T14:51:38.745Z,71.60
2022-12-09T14:54:16.210Z,71.80
2022-12-09T14:57:07.088Z,72.20
2022-12-09T14:59:36.619Z,72.40
2022-12-09T15:02:20.934Z,72.80
2022-12-09T15:04:52.189Z,72.90
2022-12-09T15:07:22.800Z,73.10
2022-12-09T15:10:21.752Z,73.30
2022-12-09T15:12:53.782Z,73.50
2022-12-09T15:15:25.317Z,73.60
2022-12-09T15:17:59.352Z,74.50
2022-12-09T15:20:31.766Z,74.00
2022-12-09T15:23:03.361Z,74.20
2022-12-09T15:25:36.066Z,74.50
2022-12-09T15:28:09.390Z,74.70
2022-12-09T15:30:40.053Z,75.10
2022-12-09T15:33:30.768Z,75.50
2022-12-09T15:36:04.470Z,75.80
2022-12-09T15:38:55.436Z,76.10
2022-12-09T15:42:03.837Z,76.20
2022-12-09T15:44:36.581Z,76.60
2022-12-09T15:47:10.440Z,76.70
2022-12-09T15:49:46.327Z,77.10
2022-12-09T15:52:19.783Z,78.20
2022-12-09T15:54:49.939Z,77.70
2022-12-09T15:57:24.155Z,77.80
2022-12-09T16:00:12.815Z,78.00
2022-12-09T16:02:42.672Z,78.00
2022-12-09T16:05:30.155Z,78.20
2022-12-09T16:08:02.169Z,78.30
2022-12-09T16:10:32.400Z,78.50
2022-12-09T16:13:13.997Z,78.80
2022-12-09T16:15:47.137Z,79.00
2022-12-09T16:18:20.125Z,79.20
2022-12-09T16:21:01.945Z,79.40
2022-12-09T16:23:31.131Z,79.60
2022-12-09T16:26:07.082Z,79.80
2022-12-09T16:28:38.692Z,80.00
2022-12-09T16:31:19.513Z,80.50
2022-12-09T16:33:50.561Z,80.80
2022-12-09T16:36:23.181Z,81.00
2022-12-09T16:39:24.533Z,81.30
2022-12-09T16:42:24.559Z,81.70
2022-12-09T16:45:15.047Z,82.20
2022-12-09T16:47:46.036Z,82.40
2022-12-09T16:50:16.239Z,82.80
2022-12-09T16:52:45.202Z,83.00
2022-12-09T16:55:21.446Z,83.10
2022-12-09T16:57:51.316Z,83.40
2022-12-09T17:00:22.615Z,83.60
2022-12-09T17:02:58.469Z,83.70
2022-12-09T17:05:27.788Z,84.00
2022-12-09T17:07:56.680Z,84.00
2022-12-09T17:10:25.895Z,84.30
2022-12-09T17:12:57.749Z,84.50
2022-12-09T17:15:28.939Z,84.60
2022-12-09T17:17:59.029Z,84.70
2022-12-09T17:20:28.845Z,84.70
2022-12-09T17:22:58.409Z,84.80
2022-12-09T17:25:29.907Z,85.00
2022-12-09T17:27:58.989Z,85.20
2022-12-09T17:30:30.264Z,85.60
2022-12-09T17:33:03.457Z,86.10
2022-12-09T17:35:34.444Z,86.60
2022-12-09T17:38:03.761Z,87.00
2022-12-09T17:40:36.712Z,87.20
2022-12-09T17:43:05.662Z,87.70
2022-12-09T17:45:42.117Z,88.30
2022-12-09T17:48:17.521Z,88.70
2022-12-09T17:50:46.574Z,88.90
2022-12-09T17:53:15.875Z,89.40
2022-12-09T17:55:45.772Z,89.70
2022-12-09T17:58:14.875Z,90.00
2022-12-09T18:00:45.259Z,90.10
2022-12-09T18:03:27.521Z,90.30
2022-12-09T18:06:03.862Z,90.50
2022-12-09T18:08:32.781Z,90.60
2022-12-09T18:11:05.008Z,90.70
2022-12-09T18:13:34.603Z,90.70
2022-12-09T18:16:09.891Z,90.80
2022-12-09T18:18:40.074Z,90.90
2022-12-09T18:21:15.315Z,91.10
2022-12-09T18:23:45.255Z,91.20
2022-12-09T18:26:16.145Z,91.40
2022-12-09T18:28:45.361Z,91.60
2022-12-09T18:31:19.290Z,91.80
2022-12-09T18:33:49.135Z,92.00
2022-12-09T18:36:20.076Z,92.20
2022-12-09T18:38:50.132Z,92.30
2022-12-09T18:41:22.024Z,92.50
2022-12-09T18:43:53.182Z,92.60
2022-12-09T18:46:26.354Z,92.60
2022-12-09T18:48:59.396Z,93.00
2022-12-09T18:51:29.426Z,92.90
2022-12-09T18:53:59.283Z,93.10
2022-12-09T18:56:31.513Z,93.20
2022-12-09T18:59:09.252Z,93.50
2022-12-09T19:01:41.813Z,93.70
2022-12-09T19:04:17.251Z,93.80
2022-12-09T19:06:47.871Z,93.80
2022-12-09T19:09:19.826Z,93.80
2022-12-09T19:11:50.643Z,93.90
2022-12-09T19:14:21.760Z,94.10
2022-12-09T19:17:11.021Z,94.50
2022-12-09T19:19:43.447Z,94.90
2022-12-09T19:22:13.641Z,95.20
2022-12-09T19:24:48.075Z,95.40
2022-12-09T19:27:17.909Z,95.60
2022-12-09T19:29:53.368Z,95.80
2022-12-09T19:32:52.060Z,96.00
2022-12-09T19:35:13.874Z,96.30
2022-12-09T19:37:43.174Z,96.50
2022-12-09T19:40:14.345Z,96.80
2022-12-09T19:42:43.233Z,97.10
2022-12-09T19:45:14.385Z,97.30
2022-12-09T19:47:46.196Z,97.50
2022-12-09T19:50:16.239Z,97.90
2022-12-09T19:52:50.891Z,98.20
2022-12-09T19:55:25.487Z,98.50
2022-12-09T19:57:55.788Z,98.70
2022-12-09T20:00:24.733Z,99.00
2022-12-09T20:02:59.332Z,99.30
2022-12-09T20:05:28.330Z,99.40
2022-12-09T20:07:57.415Z,99.40
2022-12-09T20:10:35.840Z,99.40
2022-12-09T20:13:10.766Z,99.40
2022-12-09T20:15:46.458Z,99.50
2022-12-09T20:18:21.859Z,99.40
2022-12-09T20:20:51.221Z,99.30
2022-12-09T20:23:28.315Z,99.10
2022-12-09T20:26:07.026Z,99.10
2022-12-09T20:28:38.186Z,99.10
2022-12-09T20:31:10.917Z,99.20
2022-12-09T20:33:42.225Z,99.30
2022-12-09T20:36:15.128Z,99.30
2022-12-09T20:38:50.546Z,99.40
2022-12-09T20:41:20.444Z,99.40
2022-12-09T20:43:51.628Z,99.50
2022-12-09T20:46:22.874Z,99.60
2022-12-09T20:48:53.488Z,99.70
2022-12-09T20:51:25.547Z,99.90
2022-12-09T20:53:55.886Z,99.90
2022-12-09T20:56:27.001Z,99.90
2022-12-09T20:58:57.007Z,99.90
2022-12-09T21:01:30.098Z,99.90
2022-12-09T21:04:02.516Z,99.90
2022-12-09T21:06:33.068Z,99.90
2022-12-09T21:09:04.773Z,99.90
2022-12-09T21:11:34.621Z,99.90
2022-12-09T21:14:05.910Z,99.90
2022-12-09T21:16:38.941Z,99.90
2022-12-09T21:19:13.602Z,99.90
2022-12-09T21:21:47.150Z,99.90
2022-12-09T21:24:21.550Z,99.90
2022-12-09T21:26:53.587Z,99.90
2022-12-09T21:29:32.708Z,99.90
2022-12-09T21:32:05.477Z,99.90
2022-12-09T21:34:37.418Z,99.90
2022-12-09T21:37:25.218Z,99.90
2022-12-09T21:39:54.032Z,99.90
2022-12-09T21:42:27.430Z,99.90
2022-12-09T21:45:01.189Z,99.90
2022-12-09T21:47:34.531Z,99.90
2022-12-09T21:50:11.643Z,99.90
2022-12-09T21:52:42.167Z,99.90
2022-12-09T21:55:11.889Z,99.90
2022-12-09T21:57:40.725Z,99.90
2022-12-09T22:00:11.782Z,99.90
2022-12-09T22:02:41.536Z,99.90
2022-12-09T22:05:12.004Z,99.90
2022-12-09T22:07:40.851Z,99.90
2022-12-09T22:10:11.114Z,99.90
2022-12-09T22:12:40.101Z,99.90
2022-12-09T22:15:11.169Z,99.90
2022-12-09T22:17:40.212Z,99.90
2022-12-09T22:20:54.132Z,99.90
2022-12-09T22:23:19.238Z,99.90
2022-12-09T22:25:48.328Z,99.90
2022-12-09T22:28:17.342Z,99.90
2022-12-09T22:30:46.292Z,99.90
2022-12-09T22:33:15.203Z,99.90
2022-12-09T22:35:45.496Z,99.90
2022-12-09T22:38:14.914Z,99.90
2022-12-09T22:40:44.065Z,99.90
2022-12-09T22:43:12.935Z,99.90
2022-12-09T22:45:41.848Z,99.90
2022-12-09T22:48:10.826Z,99.90
2022-12-09T22:50:39.690Z,99.90
2022-12-09T22:53:10.169Z,99.90
2022-12-09T22:55:39.092Z,99.90
2022-12-09T22:58:07.900Z,99.90
2022-12-09T23:00:36.811Z,99.90
2022-12-09T23:03:05.884Z,99.90
2022-12-09T23:05:38.820Z,99.90
2022-12-09T23:08:09.555Z,99.90
2022-12-09T23:10:38.561Z,99.90
2022-12-09T23:13:07.993Z,99.90
2022-12-09T23:15:37.691Z,99.90
2022-12-09T23:18:07.000Z,99.90
2022-12-09T23:20:36.236Z,99.90
2022-12-09T23:23:05.546Z,99.90
2022-12-09T23:25:36.631Z,99.90
2022-12-09T23:28:06.043Z,99.90
2022-12-09T23:30:36.069Z,99.90
2022-12-09T23:33:05.421Z,99.90
2022-12-09T23:35:39.436Z,99.90
2022-12-09T23:38:08.354Z,99.90
2022-12-09T23:40:38.779Z,99.90
2022-12-09T23:43:07.626Z,99.90
2022-12-09T23:45:36.571Z,99.90
2022-12-09T23:48:05.583Z,99.90
2022-12-09T23:50:34.590Z,99.90
2022-12-09T23:53:03.584Z,99.90
2022-12-09T23:55:32.597Z,99.90
2022-12-09T23:58:02.970Z,99.90
